Terminal Aerodrome Forecast
Issued by NWS

Home | Current Version | Previous Version | Text Only | Print | Product List | Glossary On
Versions: 1 2 3 4 5 6 7 8 9 10 11 12 13 14 15 16 17 18 19 20 21 22 23 24 25 26 27 28 29 30 31
000
FTUS46 KMTR 221900 AAB
TAFSFO
TAF AMD
KSFO 221930Z 2220/2324 VRB04KT 1/4SM FG VV002
     FM222030 31005KT 1SM BR OVC003
     FM222115 29011KT P6SM SCT025
     FM230300 24004KT P6SM SCT030
     FM231000 00000KT 5SM BR OVC006
     FM231600 00000KT 1SM BR OVC002
     FM231900 00000KT P6SM BKN015=

USA.gov is the U.S. government's official web portal to all federal, state and local government web resources and services.